sensor_id;sensor_type;location;lat;lon;timestamp;temperature;humidity
39525;DHT22;25203;50.754;6.978;2023-02-28T00:00:05;-1.00;99.90
39525;DHT22;25203;50.754;6.978;2023-02-28T00:02:11;-1.10;99.90
39525;DHT22;25203;50.754;6.978;2023-02-28T00:04:12;-1.20;99.90
39525;DHT22;25203;50.754;6.978;2023-02-28T00:06:13;-1.20;99.90
39525;DHT22;25203;50.754;6.978;2023-02-28T00:08:14;-1.30;99.90
39525;DHT22;25203;50.754;6.978;2023-02-28T00:10:20;-1.30;99.90
39525;DHT22;25203;50.754;6.978;2023-02-28T00:12:21;-1.40;99.90
39525;DHT22;25203;50.754;6.978;2023-02-28T00:14:21;-1.50;99.90
39525;DHT22;25203;50.754;6.978;2023-02-28T00:16:22;-1.50;99.90
39525;DHT22;25203;50.754;6.978;2023-02-28T00:18:23;-1.50;99.90
39525;DHT22;25203;50.754;6.978;2023-02-28T00:20:24;-1.70;99.90
39525;DHT22;25203;50.754;6.978;2023-02-28T00:22:24;-1.60;99.90
39525;DHT22;25203;50.754;6.978;2023-02-28T00:24:25;-1.90;99.90
39525;DHT22;25203;50.754;6.978;2023-02-28T00:26:26;-2.00;99.90
39525;DHT22;25203;50.754;6.978;2023-02-28T00:28:26;-1.90;99.90
39525;DHT22;25203;50.754;6.978;2023-02-28T00:30:27;-1.90;99.90
39525;DHT22;25203;50.754;6.978;2023-02-28T00:32:27;-1.80;99.90
39525;DHT22;25203;50.754;6.978;2023-02-28T00:34:28;-1.80;99.90
39525;DHT22;25203;50.754;6.978;2023-02-28T00:36:29;-1.70;99.90
39525;DHT22;25203;50.754;6.978;2023-02-28T00:38:30;-1.80;99.90
39525;DHT22;25203;50.754;6.978;2023-02-28T00:40:30;-1.70;99.90
39525;DHT22;25203;50.754;6.978;2023-02-28T00:42:31;-1.80;99.90
39525;DHT22;25203;50.754;6.978;2023-02-28T00:44:32;-1.80;99.90
39525;DHT22;25203;50.754;6.978;2023-02-28T00:46:32;-1.90;99.90
39525;DHT22;25203;50.754;6.978;2023-02-28T00:48:33;-1.90;99.90
39525;DHT22;25203;50.754;6.978;2023-02-28T00:50:34;-1.90;99.90
39525;DHT22;25203;50.754;6.978;2023-02-28T00:52:34;-2.00;99.90
39525;DHT22;25203;50.754;6.978;2023-02-28T00:54:35;-2.00;99.90
39525;DHT22;25203;50.754;6.978;2023-02-28T00:56:35;-2.00;99.90
39525;DHT22;25203;50.754;6.978;2023-02-28T00:58:36;-2.10;99.90
39525;DHT22;25203;50.754;6.978;2023-02-28T01:00:37;-2.10;99.90
39525;DHT22;25203;50.754;6.978;2023-02-28T01:02:37;-2.10;99.90
39525;DHT22;25203;50.754;6.978;2023-02-28T01:04:38;-2.10;99.90
39525;DHT22;25203;50.754;6.978;2023-02-28T01:06:38;-2.10;99.90
39525;DHT22;25203;50.754;6.978;2023-02-28T01:08:39;-2.20;99.90
39525;DHT22;25203;50.754;6.978;2023-02-28T01:10:40;-2.20;99.90
39525;DHT22;25203;50.754;6.978;2023-02-28T01:12:41;-2.30;99.90
39525;DHT22;25203;50.754;6.978;2023-02-28T01:14:41;-2.40;99.90
39525;DHT22;25203;50.754;6.978;2023-02-28T01:16:42;-2.40;99.90
39525;DHT22;25203;50.754;6.978;2023-02-28T01:18:43;-2.50;99.90
39525;DHT22;25203;50.754;6.978;2023-02-28T01:20:43;-2.40;99.90
39525;DHT22;25203;50.754;6.978;2023-02-28T01:22:45;-2.40;99.90
39525;DHT22;25203;50.754;6.978;2023-02-28T01:24:46;-2.40;99.90
39525;DHT22;25203;50.754;6.978;2023-02-28T01:26:46;-2.30;99.90
39525;DHT22;25203;50.754;6.978;2023-02-28T01:28:48;-2.20;99.90
39525;DHT22;25203;50.754;6.978;2023-02-28T01:30:49;-2.20;99.90
39525;DHT22;25203;50.754;6.978;2023-02-28T01:32:50;-2.10;99.90
39525;DHT22;25203;50.754;6.978;2023-02-28T01:34:53;-2.10;99.90
39525;DHT22;25203;50.754;6.978;2023-02-28T01:36:54;-2.00;99.90
39525;DHT22;25203;50.754;6.978;2023-02-28T01:38:55;-2.10;99.90
39525;DHT22;25203;50.754;6.978;2023-02-28T01:40:55;-2.10;99.90
39525;DHT22;25203;50.754;6.978;2023-02-28T01:42:56;-2.20;99.90
39525;DHT22;25203;50.754;6.978;2023-02-28T01:45:01;-2.20;99.90
39525;DHT22;25203;50.754;6.978;2023-02-28T01:47:02;-2.30;99.90
39525;DHT22;25203;50.754;6.978;2023-02-28T01:49:13;-2.30;99.90
39525;DHT22;25203;50.754;6.978;2023-02-28T01:51:18;-2.20;99.90
39525;DHT22;25203;50.754;6.978;2023-02-28T01:53:26;-2.20;99.90
39525;DHT22;25203;50.754;6.978;2023-02-28T01:55:29;-2.10;99.90
39525;DHT22;25203;50.754;6.978;2023-02-28T01:57:35;-2.00;99.90
39525;DHT22;25203;50.754;6.978;2023-02-28T01:59:45;-2.00;99.90
39525;DHT22;25203;50.754;6.978;2023-02-28T02:01:51;-2.00;99.90
39525;DHT22;25203;50.754;6.978;2023-02-28T02:03:58;-2.10;99.90
39525;DHT22;25203;50.754;6.978;2023-02-28T02:05:59;-2.10;99.90
39525;DHT22;25203;50.754;6.978;2023-02-28T02:08:06;-2.20;99.90
39525;DHT22;25203;50.754;6.978;2023-02-28T02:10:14;-2.30;99.90
39525;DHT22;25203;50.754;6.978;2023-02-28T02:15:03;-2.40;99.90
39525;DHT22;25203;50.754;6.978;2023-02-28T02:17:16;-2.50;99.90
39525;DHT22;25203;50.754;6.978;2023-02-28T02:35:54;-2.80;99.90
39525;DHT22;25203;50.754;6.978;2023-02-28T02:40:27;-2.80;99.90
39525;DHT22;25203;50.754;6.978;2023-02-28T02:44:47;-2.80;99.90
39525;DHT22;25203;50.754;6.978;2023-02-28T02:46:51;-2.80;99.90
39525;DHT22;25203;50.754;6.978;2023-02-28T02:48:56;-2.80;99.90
39525;DHT22;25203;50.754;6.978;2023-02-28T02:51:00;-2.80;99.90
39525;DHT22;25203;50.754;6.978;2023-02-28T02:53:03;-2.90;99.90
39525;DHT22;25203;50.754;6.978;2023-02-28T02:55:05;-3.00;99.90
39525;DHT22;25203;50.754;6.978;2023-02-28T02:57:16;-3.00;99.90
39525;DHT22;25203;50.754;6.978;2023-02-28T02:59:21;-3.10;99.90
39525;DHT22;25203;50.754;6.978;2023-02-28T03:01:26;-3.10;99.90
39525;DHT22;25203;50.754;6.978;2023-02-28T03:03:29;-3.20;99.90
39525;DHT22;25203;50.754;6.978;2023-02-28T03:05:44;-3.10;99.90
39525;DHT22;25203;50.754;6.978;2023-02-28T03:07:46;-3.10;99.90
39525;DHT22;25203;50.754;6.978;2023-02-28T03:09:55;-3.10;99.90
39525;DHT22;25203;50.754;6.978;2023-02-28T03:11:56;-3.00;99.90
39525;DHT22;25203;50.754;6.978;2023-02-28T03:21:14;-3.10;99.90
39525;DHT22;25203;50.754;6.978;2023-02-28T03:23:24;-3.10;99.90
39525;DHT22;25203;50.754;6.978;2023-02-28T03:30:10;-3.30;99.90
39525;DHT22;25203;50.754;6.978;2023-02-28T03:32:27;-3.40;99.90
39525;DHT22;25203;50.754;6.978;2023-02-28T03:34:33;-3.50;99.90
39525;DHT22;25203;50.754;6.978;2023-02-28T03:36:39;-3.50;99.90
39525;DHT22;25203;50.754;6.978;2023-02-28T03:39:06;-3.60;99.90
39525;DHT22;25203;50.754;6.978;2023-02-28T03:41:25;-3.60;99.90
39525;DHT22;25203;50.754;6.978;2023-02-28T03:43:32;-3.70;99.90
39525;DHT22;25203;50.754;6.978;2023-02-28T03:45:36;-3.70;99.90
39525;DHT22;25203;50.754;6.978;2023-02-28T03:47:55;-3.60;99.90
39525;DHT22;25203;50.754;6.978;2023-02-28T03:50:08;-3.40;99.90
39525;DHT22;25203;50.754;6.978;2023-02-28T03:52:10;-3.40;99.90
39525;DHT22;25203;50.754;6.978;2023-02-28T03:54:16;-3.40;99.90
39525;DHT22;25203;50.754;6.978;2023-02-28T03:56:22;-3.40;99.90
39525;DHT22;25203;50.754;6.978;2023-02-28T03:58:35;-3.50;99.90
39525;DHT22;25203;50.754;6.978;2023-02-28T04:00:40;-3.50;99.90
39525;DHT22;25203;50.754;6.978;2023-02-28T04:02:43;-3.50;99.90
39525;DHT22;25203;50.754;6.978;2023-02-28T04:04:44;-3.50;99.90
39525;DHT22;25203;50.754;6.978;2023-02-28T04:06:45;-3.50;99.90
39525;DHT22;25203;50.754;6.978;2023-02-28T04:08:50;-3.50;99.90
39525;DHT22;25203;50.754;6.978;2023-02-28T04:10:56;-3.40;99.90
39525;DHT22;25203;50.754;6.978;2023-02-28T04:13:00;-3.30;99.90
39525;DHT22;25203;50.754;6.978;2023-02-28T04:15:00;-3.30;99.90
39525;DHT22;25203;50.754;6.978;2023-02-28T04:17:01;-3.40;99.90
39525;DHT22;25203;50.754;6.978;2023-02-28T04:19:03;-3.50;99.90
39525;DHT22;25203;50.754;6.978;2023-02-28T04:21:06;-3.60;99.90
39525;DHT22;25203;50.754;6.978;2023-02-28T04:23:07;-3.60;99.90
39525;DHT22;25203;50.754;6.978;2023-02-28T04:25:07;-3.70;99.90
39525;DHT22;25203;50.754;6.978;2023-02-28T04:27:08;-3.80;99.90
39525;DHT22;25203;50.754;6.978;2023-02-28T04:29:12;-3.80;99.90
39525;DHT22;25203;50.754;6.978;2023-02-28T04:31:13;-3.90;99.90
39525;DHT22;25203;50.754;6.978;2023-02-28T04:33:14;-3.80;99.90
39525;DHT22;25203;50.754;6.978;2023-02-28T04:35:14;-3.90;99.90
39525;DHT22;25203;50.754;6.978;2023-02-28T04:37:16;-3.90;99.90
39525;DHT22;25203;50.754;6.978;2023-02-28T04:39:17;-3.80;99.90
39525;DHT22;25203;50.754;6.978;2023-02-28T04:41:18;-3.80;99.90
39525;DHT22;25203;50.754;6.978;2023-02-28T04:43:19;-3.80;99.90
39525;DHT22;25203;50.754;6.978;2023-02-28T04:45:20;-3.80;99.90
39525;DHT22;25203;50.754;6.978;2023-02-28T04:47:20;-3.80;99.90
39525;DHT22;25203;50.754;6.978;2023-02-28T04:49:21;-3.90;99.90
39525;DHT22;25203;50.754;6.978;2023-02-28T04:51:22;-3.90;99.90
39525;DHT22;25203;50.754;6.978;2023-02-28T04:53:22;-3.90;99.90
39525;DHT22;25203;50.754;6.978;2023-02-28T04:55:23;-4.00;99.90
39525;DHT22;25203;50.754;6.978;2023-02-28T04:57:24;-3.90;99.90
39525;DHT22;25203;50.754;6.978;2023-02-28T04:59:24;-3.90;99.90
39525;DHT22;25203;50.754;6.978;2023-02-28T05:01:33;-3.80;99.90
39525;DHT22;25203;50.754;6.978;2023-02-28T05:03:35;-3.60;99.90
39525;DHT22;25203;50.754;6.978;2023-02-28T05:05:35;-3.50;99.90
39525;DHT22;25203;50.754;6.978;2023-02-28T05:07:36;-3.40;99.90
39525;DHT22;25203;50.754;6.978;2023-02-28T05:09:36;-3.30;99.90
39525;DHT22;25203;50.754;6.978;2023-02-28T05:11:37;-3.20;99.90
39525;DHT22;25203;50.754;6.978;2023-02-28T05:13:39;-3.10;99.90
39525;DHT22;25203;50.754;6.978;2023-02-28T05:15:39;-3.00;99.90
39525;DHT22;25203;50.754;6.978;2023-02-28T05:17:40;-2.90;99.90
39525;DHT22;25203;50.754;6.978;2023-02-28T05:19:41;-2.90;99.90
39525;DHT22;25203;50.754;6.978;2023-02-28T05:21:54;-2.90;99.90
39525;DHT22;25203;50.754;6.978;2023-02-28T05:24:00;-2.90;99.90
39525;DHT22;25203;50.754;6.978;2023-02-28T05:26:01;-2.90;99.90
39525;DHT22;25203;50.754;6.978;2023-02-28T05:28:02;-2.80;99.90
39525;DHT22;25203;50.754;6.978;2023-02-28T05:30:03;-2.80;99.90
39525;DHT22;25203;50.754;6.978;2023-02-28T05:32:04;-2.80;99.90
39525;DHT22;25203;50.754;6.978;2023-02-28T05:34:05;-2.90;99.90
39525;DHT22;25203;50.754;6.978;2023-02-28T05:36:06;-2.90;99.90
39525;DHT22;25203;50.754;6.978;2023-02-28T05:38:07;-3.00;99.90
39525;DHT22;25203;50.754;6.978;2023-02-28T05:40:08;-3.00;99.90
39525;DHT22;25203;50.754;6.978;2023-02-28T05:42:10;-3.00;99.90
39525;DHT22;25203;50.754;6.978;2023-02-28T05:44:11;-3.00;99.90
39525;DHT22;25203;50.754;6.978;2023-02-28T05:46:13;-2.90;99.90
39525;DHT22;25203;50.754;6.978;2023-02-28T05:48:13;-2.90;99.90
39525;DHT22;25203;50.754;6.978;2023-02-28T05:50:14;-2.90;99.90
39525;DHT22;25203;50.754;6.978;2023-02-28T05:52:15;-2.90;99.90
39525;DHT22;25203;50.754;6.978;2023-02-28T05:54:16;-3.00;99.90
39525;DHT22;25203;50.754;6.978;2023-02-28T05:56:16;-3.00;99.90
39525;DHT22;25203;50.754;6.978;2023-02-28T05:58:17;-3.00;99.90
39525;DHT22;25203;50.754;6.978;2023-02-28T06:00:18;-3.10;99.90
39525;DHT22;25203;50.754;6.978;2023-02-28T06:02:18;-3.10;99.90
39525;DHT22;25203;50.754;6.978;2023-02-28T06:04:20;-3.20;99.90
39525;DHT22;25203;50.754;6.978;2023-02-28T06:06:21;-3.20;99.90
39525;DHT22;25203;50.754;6.978;2023-02-28T06:08:21;-3.20;99.90
39525;DHT22;25203;50.754;6.978;2023-02-28T06:10:22;-3.20;99.90
39525;DHT22;25203;50.754;6.978;2023-02-28T06:12:22;-3.20;99.90
39525;DHT22;25203;50.754;6.978;2023-02-28T06:14:23;-3.20;99.90
39525;DHT22;25203;50.754;6.978;2023-02-28T06:16:24;-3.20;99.90
39525;DHT22;25203;50.754;6.978;2023-02-28T06:18:25;-3.20;99.90
39525;DHT22;25203;50.754;6.978;2023-02-28T06:20:27;-3.20;99.90
39525;DHT22;25203;50.754;6.978;2023-02-28T06:22:29;-3.10;99.90
39525;DHT22;25203;50.754;6.978;2023-02-28T06:24:30;-3.10;99.90
39525;DHT22;25203;50.754;6.978;2023-02-28T06:26:31;-3.20;99.90
39525;DHT22;25203;50.754;6.978;2023-02-28T06:28:32;-3.10;99.90
39525;DHT22;25203;50.754;6.978;2023-02-28T06:30:33;-3.20;99.90
39525;DHT22;25203;50.754;6.978;2023-02-28T06:32:34;-3.20;99.90
39525;DHT22;25203;50.754;6.978;2023-02-28T06:34:36;-3.20;99.90
39525;DHT22;25203;50.754;6.978;2023-02-28T06:36:38;-3.20;99.90
39525;DHT22;25203;50.754;6.978;2023-02-28T06:38:39;-3.10;99.90
39525;DHT22;25203;50.754;6.978;2023-02-28T06:40:40;-3.10;99.90
39525;DHT22;25203;50.754;6.978;2023-02-28T06:42:41;-3.10;99.90
39525;DHT22;25203;50.754;6.978;2023-02-28T06:44:42;-3.10;99.90
39525;DHT22;25203;50.754;6.978;2023-02-28T06:46:45;-3.00;99.90
39525;DHT22;25203;50.754;6.978;2023-02-28T06:48:46;-3.00;99.90
39525;DHT22;25203;50.754;6.978;2023-02-28T06:50:47;-3.00;99.90
39525;DHT22;25203;50.754;6.978;2023-02-28T06:52:47;-3.00;99.90
39525;DHT22;25203;50.754;6.978;2023-02-28T06:54:48;-3.10;99.90
39525;DHT22;25203;50.754;6.978;2023-02-28T06:56:59;-3.10;99.90
39525;DHT22;25203;50.754;6.978;2023-02-28T06:59:00;-3.10;99.90
39525;DHT22;25203;50.754;6.978;2023-02-28T07:01:01;-3.10;99.90
39525;DHT22;25203;50.754;6.978;2023-02-28T07:03:02;-3.10;99.90
39525;DHT22;25203;50.754;6.978;2023-02-28T07:05:04;-3.10;99.90
39525;DHT22;25203;50.754;6.978;2023-02-28T07:07:04;-3.00;99.90
39525;DHT22;25203;50.754;6.978;2023-02-28T07:09:05;-3.00;99.90
39525;DHT22;25203;50.754;6.978;2023-02-28T07:11:06;-2.90;99.90
39525;DHT22;25203;50.754;6.978;2023-02-28T07:13:07;-2.90;99.90
39525;DHT22;25203;50.754;6.978;2023-02-28T07:15:09;-2.80;99.90
39525;DHT22;25203;50.754;6.978;2023-02-28T07:17:10;-2.70;99.90
39525;DHT22;25203;50.754;6.978;2023-02-28T07:19:12;-2.70;99.90
39525;DHT22;25203;50.754;6.978;2023-02-28T07:21:13;-2.60;99.90
39525;DHT22;25203;50.754;6.978;2023-02-28T07:23:14;-2.50;99.90
39525;DHT22;25203;50.754;6.978;2023-02-28T07:25:14;-2.40;99.90
39525;DHT22;25203;50.754;6.978;2023-02-28T07:27:15;-2.30;99.90
39525;DHT22;25203;50.754;6.978;2023-02-28T07:29:23;-2.20;99.90
39525;DHT22;25203;50.754;6.978;2023-02-28T07:31:24;-2.00;99.90
39525;DHT22;25203;50.754;6.978;2023-02-28T07:33:25;-1.10;99.90
39525;DHT22;25203;50.754;6.978;2023-02-28T07:35:25;0.90;99.90
39525;DHT22;25203;50.754;6.978;2023-02-28T07:37:26;3.10;99.90
39525;DHT22;25203;50.754;6.978;2023-02-28T07:39:26;5.40;99.90
39525;DHT22;25203;50.754;6.978;2023-02-28T07:41:27;7.50;98.80
39525;DHT22;25203;50.754;6.978;2023-02-28T07:43:30;9.30;95.20
39525;DHT22;25203;50.754;6.978;2023-02-28T07:45:31;10.80;92.20
39525;DHT22;25203;50.754;6.978;2023-02-28T07:47:34;12.20;86.20
39525;DHT22;25203;50.754;6.978;2023-02-28T07:49:36;13.50;76.20
39525;DHT22;25203;50.754;6.978;2023-02-28T07:51:36;14.50;68.80
39525;DHT22;25203;50.754;6.978;2023-02-28T07:53:37;14.90;67.30
39525;DHT22;25203;50.754;6.978;2023-02-28T07:55:37;15.80;63.80
39525;DHT22;25203;50.754;6.978;2023-02-28T07:57:38;16.40;61.50
39525;DHT22;25203;50.754;6.978;2023-02-28T07:59:39;17.00;59.10
39525;DHT22;25203;50.754;6.978;2023-02-28T08:01:40;17.60;55.60
39525;DHT22;25203;50.754;6.978;2023-02-28T08:03:40;17.90;53.50
39525;DHT22;25203;50.754;6.978;2023-02-28T08:05:41;18.30;51.20
39525;DHT22;25203;50.754;6.978;2023-02-28T08:07:42;18.20;50.70
39525;DHT22;25203;50.754;6.978;2023-02-28T08:09:44;18.20;48.60
39525;DHT22;25203;50.754;6.978;2023-02-28T08:11:44;17.80;49.20
39525;DHT22;25203;50.754;6.978;2023-02-28T08:13:46;18.10;49.30
39525;DHT22;25203;50.754;6.978;2023-02-28T08:15:46;18.80;47.80
39525;DHT22;25203;50.754;6.978;2023-02-28T08:17:47;19.00;47.70
39525;DHT22;25203;50.754;6.978;2023-02-28T08:19:48;19.40;47.00
39525;DHT22;25203;50.754;6.978;2023-02-28T08:21:49;19.30;46.70
39525;DHT22;25203;50.754;6.978;2023-02-28T08:23:50;19.70;46.80
39525;DHT22;25203;50.754;6.978;2023-02-28T08:25:55;20.00;45.70
39525;DHT22;25203;50.754;6.978;2023-02-28T08:27:56;20.40;44.40
39525;DHT22;25203;50.754;6.978;2023-02-28T08:29:56;20.20;44.90
39525;DHT22;25203;50.754;6.978;2023-02-28T08:31:57;20.10;44.00
39525;DHT22;25203;50.754;6.978;2023-02-28T08:33:59;19.60;45.00
39525;DHT22;25203;50.754;6.978;2023-02-28T08:35:59;19.30;44.00
39525;DHT22;25203;50.754;6.978;2023-02-28T08:38:00;18.70;46.10
39525;DHT22;25203;50.754;6.978;2023-02-28T08:40:00;18.40;45.30
39525;DHT22;25203;50.754;6.978;2023-02-28T08:42:02;17.70;44.00
39525;DHT22;25203;50.754;6.978;2023-02-28T08:44:03;16.70;45.10
39525;DHT22;25203;50.754;6.978;2023-02-28T08:46:05;16.90;45.10
39525;DHT22;25203;50.754;6.978;2023-02-28T08:48:06;16.80;44.90
39525;DHT22;25203;50.754;6.978;2023-02-28T08:50:07;16.60;44.90
39525;DHT22;25203;50.754;6.978;2023-02-28T08:52:08;16.70;44.80
39525;DHT22;25203;50.754;6.978;2023-02-28T08:54:09;16.50;44.80
39525;DHT22;25203;50.754;6.978;2023-02-28T08:56:14;16.20;46.00
39525;DHT22;25203;50.754;6.978;2023-02-28T08:58:16;16.40;45.40
39525;DHT22;25203;50.754;6.978;2023-02-28T09:00:17;16.70;44.90
39525;DHT22;25203;50.754;6.978;2023-02-28T09:02:18;16.80;44.40
39525;DHT22;25203;50.754;6.978;2023-02-28T09:04:19;16.80;44.10
39525;DHT22;25203;50.754;6.978;2023-02-28T09:06:21;15.90;44.00
39525;DHT22;25203;50.754;6.978;2023-02-28T09:08:24;15.50;44.90
39525;DHT22;25203;50.754;6.978;2023-02-28T09:10:25;15.30;44.90
39525;DHT22;25203;50.754;6.978;2023-02-28T09:12:26;15.10;44.90
39525;DHT22;25203;50.754;6.978;2023-02-28T09:14:27;15.40;44.40
39525;DHT22;25203;50.754;6.978;2023-02-28T09:16:29;15.60;43.90
39525;DHT22;25203;50.754;6.978;2023-02-28T09:18:31;15.60;44.20
39525;DHT22;25203;50.754;6.978;2023-02-28T09:20:31;15.90;43.40
39525;DHT22;25203;50.754;6.978;2023-02-28T09:22:32;15.80;43.60
39525;DHT22;25203;50.754;6.978;2023-02-28T09:24:33;16.50;43.30
39525;DHT22;25203;50.754;6.978;2023-02-28T09:26:33;16.30;43.10
39525;DHT22;25203;50.754;6.978;2023-02-28T09:28:34;16.70;42.70
39525;DHT22;25203;50.754;6.978;2023-02-28T09:30:35;16.00;42.60
39525;DHT22;25203;50.754;6.978;2023-02-28T09:32:35;15.70;42.80
39525;DHT22;25203;50.754;6.978;2023-02-28T09:34:36;15.20;43.00
39525;DHT22;25203;50.754;6.978;2023-02-28T09:36:37;15.30;43.10
39525;DHT22;25203;50.754;6.978;2023-02-28T09:38:38;15.00;42.70
39525;DHT22;25203;50.754;6.978;2023-02-28T09:40:51;15.10;43.00
39525;DHT22;25203;50.754;6.978;2023-02-28T09:42:55;14.70;43.80
39525;DHT22;25203;50.754;6.978;2023-02-28T09:44:56;15.00;43.50
39525;DHT22;25203;50.754;6.978;2023-02-28T09:47:10;15.80;43.30
39525;DHT22;25203;50.754;6.978;2023-02-28T09:49:14;17.10;42.10
39525;DHT22;25203;50.754;6.978;2023-02-28T09:53:37;17.70;41.00
39525;DHT22;25203;50.754;6.978;2023-02-28T09:55:45;18.20;41.20
39525;DHT22;25203;50.754;6.978;2023-02-28T09:57:48;18.40;39.80
39525;DHT22;25203;50.754;6.978;2023-02-28T10:00:05;17.80;40.40
39525;DHT22;25203;50.754;6.978;2023-02-28T10:02:22;17.40;40.80
39525;DHT22;25203;50.754;6.978;2023-02-28T10:06:54;17.40;40.80
39525;DHT22;25203;50.754;6.978;2023-02-28T10:09:02;17.40;40.50
39525;DHT22;25203;50.754;6.978;2023-02-28T10:11:07;16.60;41.20
39525;DHT22;25203;50.754;6.978;2023-02-28T10:13:33;16.30;41.40
39525;DHT22;25203;50.754;6.978;2023-02-28T10:15:35;16.90;41.50
39525;DHT22;25203;50.754;6.978;2023-02-28T10:17:40;17.10;40.90
39525;DHT22;25203;50.754;6.978;2023-02-28T10:22:04;16.10;41.70
39525;DHT22;25203;50.754;6.978;2023-02-28T10:26:39;17.00;40.90
39525;DHT22;25203;50.754;6.978;2023-02-28T10:28:42;16.90;40.70
39525;DHT22;25203;50.754;6.978;2023-02-28T10:30:46;17.00;40.70
39525;DHT22;25203;50.754;6.978;2023-02-28T10:32:51;17.00;40.80
39525;DHT22;25203;50.754;6.978;2023-02-28T10:37:03;16.40;40.80
39525;DHT22;25203;50.754;6.978;2023-02-28T10:39:42;16.10;41.00
39525;DHT22;25203;50.754;6.978;2023-02-28T10:41:43;17.30;40.80
39525;DHT22;25203;50.754;6.978;2023-02-28T10:43:44;16.90;39.70
39525;DHT22;25203;50.754;6.978;2023-02-28T10:50:45;17.70;39.50
39525;DHT22;25203;50.754;6.978;2023-02-28T10:52:50;16.30;40.20
39525;DHT22;25203;50.754;6.978;2023-02-28T10:55:21;15.30;40.50
39525;DHT22;25203;50.754;6.978;2023-02-28T10:57:23;14.50;41.50
39525;DHT22;25203;50.754;6.978;2023-02-28T10:59:31;14.10;42.10
39525;DHT22;25203;50.754;6.978;2023-02-28T11:01:39;14.30;42.60
39525;DHT22;25203;50.754;6.978;2023-02-28T11:03:39;14.50;41.80
39525;DHT22;25203;50.754;6.978;2023-02-28T11:05:40;15.00;41.50
39525;DHT22;25203;50.754;6.978;2023-02-28T11:07:54;16.00;41.10
39525;DHT22;25203;50.754;6.978;2023-02-28T11:09:57;16.80;40.70
39525;DHT22;25203;50.754;6.978;2023-02-28T11:11:58;17.20;39.60
39525;DHT22;25203;50.754;6.978;2023-02-28T11:14:06;16.10;40.40
39525;DHT22;25203;50.754;6.978;2023-02-28T11:16:15;15.30;41.00
39525;DHT22;25203;50.754;6.978;2023-02-28T11:18:51;15.30;41.50
39525;DHT22;25203;50.754;6.978;2023-02-28T11:20:54;15.70;41.10
39525;DHT22;25203;50.754;6.978;2023-02-28T11:22:57;14.90;41.00
39525;DHT22;25203;50.754;6.978;2023-02-28T11:25:07;14.00;42.00
39525;DHT22;25203;50.754;6.978;2023-02-28T11:29:33;14.60;41.30
39525;DHT22;25203;50.754;6.978;2023-02-28T11:31:35;14.80;41.40
39525;DHT22;25203;50.754;6.978;2023-02-28T11:33:53;14.40;41.10
39525;DHT22;25203;50.754;6.978;2023-02-28T11:36:03;14.90;41.60
39525;DHT22;25203;50.754;6.978;2023-02-28T11:38:04;14.40;40.60
39525;DHT22;25203;50.754;6.978;2023-02-28T11:40:20;13.10;41.80
39525;DHT22;25203;50.754;6.978;2023-02-28T11:45:02;11.10;44.00
39525;DHT22;25203;50.754;6.978;2023-02-28T11:47:38;11.00;44.60
39525;DHT22;25203;50.754;6.978;2023-02-28T11:54:30;11.20;45.10
39525;DHT22;25203;50.754;6.978;2023-02-28T11:56:38;11.30;44.70
39525;DHT22;25203;50.754;6.978;2023-02-28T12:08:47;11.30;44.50
39525;DHT22;25203;50.754;6.978;2023-02-28T12:15:49;11.10;44.60
39525;DHT22;25203;50.754;6.978;2023-02-28T12:20:32;11.20;45.30
39525;DHT22;25203;50.754;6.978;2023-02-28T12:27:11;11.20;44.70
39525;DHT22;25203;50.754;6.978;2023-02-28T12:29:23;10.50;45.30
39525;DHT22;25203;50.754;6.978;2023-02-28T12:31:34;10.40;46.40
39525;DHT22;25203;50.754;6.978;2023-02-28T12:33:40;10.60;46.20
39525;DHT22;25203;50.754;6.978;2023-02-28T12:35:53;10.30;46.10
39525;DHT22;25203;50.754;6.978;2023-02-28T12:38:09;10.30;46.10
39525;DHT22;25203;50.754;6.978;2023-02-28T12:40:17;10.30;46.20
39525;DHT22;25203;50.754;6.978;2023-02-28T12:42:45;10.50;46.90
39525;DHT22;25203;50.754;6.978;2023-02-28T12:44:53;10.10;46.00
39525;DHT22;25203;50.754;6.978;2023-02-28T12:47:00;9.40;48.00
39525;DHT22;25203;50.754;6.978;2023-02-28T12:49:06;9.40;48.30
39525;DHT22;25203;50.754;6.978;2023-02-28T12:51:09;9.30;47.00
39525;DHT22;25203;50.754;6.978;2023-02-28T12:53:37;9.20;48.20
39525;DHT22;25203;50.754;6.978;2023-02-28T12:58:01;9.30;48.30
39525;DHT22;25203;50.754;6.978;2023-02-28T13:00:14;9.30;48.00
39525;DHT22;25203;50.754;6.978;2023-02-28T13:09:21;9.00;48.90
39525;DHT22;25203;50.754;6.978;2023-02-28T13:11:44;9.00;48.30
39525;DHT22;25203;50.754;6.978;2023-02-28T13:13:45;8.80;48.70
39525;DHT22;25203;50.754;6.978;2023-02-28T13:16:12;8.70;49.40
39525;DHT22;25203;50.754;6.978;2023-02-28T13:18:38;8.80;48.80
39525;DHT22;25203;50.754;6.978;2023-02-28T13:20:47;8.60;48.70
39525;DHT22;25203;50.754;6.978;2023-02-28T13:22:50;8.40;48.80
39525;DHT22;25203;50.754;6.978;2023-02-28T13:24:55;8.30;49.00
39525;DHT22;25203;50.754;6.978;2023-02-28T13:31:10;8.40;49.70
39525;DHT22;25203;50.754;6.978;2023-02-28T13:33:27;8.40;50.00
39525;DHT22;25203;50.754;6.978;2023-02-28T13:35:36;8.30;50.60
39525;DHT22;25203;50.754;6.978;2023-02-28T13:37:43;8.30;54.80
39525;DHT22;25203;50.754;6.978;2023-02-28T13:39:45;8.50;52.60
39525;DHT22;25203;50.754;6.978;2023-02-28T13:41:47;8.50;50.60
39525;DHT22;25203;50.754;6.978;2023-02-28T13:44:01;8.50;52.20
39525;DHT22;25203;50.754;6.978;2023-02-28T13:46:12;8.50;51.00
39525;DHT22;25203;50.754;6.978;2023-02-28T13:48:18;8.20;51.00
39525;DHT22;25203;50.754;6.978;2023-02-28T13:50:23;7.90;51.10
39525;DHT22;25203;50.754;6.978;2023-02-28T13:52:27;7.80;50.70
39525;DHT22;25203;50.754;6.978;2023-02-28T13:55:10;7.70;51.40
39525;DHT22;25203;50.754;6.978;2023-02-28T14:04:40;7.90;51.80
39525;DHT22;25203;50.754;6.978;2023-02-28T14:06:53;7.90;52.80
39525;DHT22;25203;50.754;6.978;2023-02-28T14:09:02;8.00;52.00
39525;DHT22;25203;50.754;6.978;2023-02-28T14:11:08;8.10;52.00
39525;DHT22;25203;50.754;6.978;2023-02-28T14:15:34;8.30;51.80
39525;DHT22;25203;50.754;6.978;2023-02-28T14:17:37;8.30;51.50
39525;DHT22;25203;50.754;6.978;2023-02-28T14:19:38;8.20;51.00
39525;DHT22;25203;50.754;6.978;2023-02-28T14:24:19;7.90;50.60
39525;DHT22;25203;50.754;6.978;2023-02-28T14:26:47;8.00;51.40
39525;DHT22;25203;50.754;6.978;2023-02-28T14:29:17;8.10;51.60
39525;DHT22;25203;50.754;6.978;2023-02-28T14:34:02;8.00;51.00
39525;DHT22;25203;50.754;6.978;2023-02-28T14:38:21;8.00;51.00
39525;DHT22;25203;50.754;6.978;2023-02-28T14:40:30;8.00;50.90
39525;DHT22;25203;50.754;6.978;2023-02-28T14:42:36;7.90;51.40
39525;DHT22;25203;50.754;6.978;2023-02-28T14:44:38;7.90;51.20
39525;DHT22;25203;50.754;6.978;2023-02-28T14:46:40;7.90;51.10
39525;DHT22;25203;50.754;6.978;2023-02-28T14:48:45;8.00;51.40
39525;DHT22;25203;50.754;6.978;2023-02-28T14:50:52;8.10;51.60
39525;DHT22;25203;50.754;6.978;2023-02-28T14:52:53;8.30;52.00
39525;DHT22;25203;50.754;6.978;2023-02-28T14:55:04;8.40;51.50
39525;DHT22;25203;50.754;6.978;2023-02-28T14:57:06;8.30;51.00
39525;DHT22;25203;50.754;6.978;2023-02-28T14:59:29;8.20;51.60
39525;DHT22;25203;50.754;6.978;2023-02-28T15:01:30;8.20;51.60